createdAt,value
2018-12-29T00:01:50.054Z,36.00
2018-12-29T00:04:19.450Z,36.57
2018-12-29T00:06:50.421Z,37.23
2018-12-29T00:09:21.957Z,37.77
2018-12-29T00:11:52.778Z,36.40
2018-12-29T00:14:31.654Z,40.88
2018-12-29T00:17:01.347Z,34.63
2018-12-29T00:19:30.723Z,38.00
2018-12-29T00:22:00.198Z,39.10
2018-12-29T00:24:43.236Z,36.33
2018-12-29T00:27:13.775Z,36.83
2018-12-29T00:29:43.154Z,40.43
2018-12-29T00:32:12.592Z,42.67
2018-12-29T00:34:41.972Z,38.10
2018-12-29T00:37:30.682Z,42.27
2018-12-29T00:40:00.295Z,41.00
2018-12-29T00:42:29.667Z,43.47
2018-12-29T00:45:02.741Z,44.10
2018-12-29T00:47:30.337Z,35.93
2018-12-29T00:49:59.954Z,40.03
2018-12-29T00:52:31.062Z,43.03
2018-12-29T00:55:00.413Z,42.63
2018-12-29T00:57:30.085Z,42.63
2018-12-29T00:59:59.446Z,39.97
2018-12-29T01:02:28.834Z,40.85
2018-12-29T01:04:58.208Z,43.50
2018-12-29T01:07:27.581Z,45.15
2018-12-29T01:09:57.256Z,42.20
2018-12-29T01:12:26.627Z,40.86
2018-12-29T01:14:56.076Z,43.87
2018-12-29T01:17:25.439Z,47.20
2018-12-29T01:19:54.907Z,41.50
2018-12-29T01:22:24.385Z,46.63
2018-12-29T01:24:55.410Z,45.37
2018-12-29T01:27:27.528Z,43.20
2018-12-29T01:29:56.948Z,40.40
2018-12-29T01:32:30.019Z,41.47
2018-12-29T01:34:59.426Z,43.90
2018-12-29T01:37:28.801Z,45.10
2018-12-29T01:39:58.250Z,45.10
2018-12-29T01:42:27.638Z,46.83
2018-12-29T01:44:57.047Z,46.60
2018-12-29T01:47:26.404Z,46.03
2018-12-29T01:49:55.814Z,41.37
2018-12-29T01:52:25.422Z,41.65
2018-12-29T01:54:55.414Z,43.58
2018-12-29T01:57:25.660Z,43.78
2018-12-29T01:59:55.401Z,52.75
2018-12-29T02:02:27.310Z,48.60
2018-12-29T02:04:56.903Z,45.83
2018-12-29T02:07:26.295Z,46.13
2018-12-29T02:09:56.602Z,46.02
2018-12-29T02:12:26.096Z,42.07
2018-12-29T02:14:55.540Z,42.50
2018-12-29T02:17:24.907Z,45.03
2018-12-29T02:19:54.604Z,41.07
2018-12-29T02:22:26.696Z,42.83
2018-12-29T02:24:56.077Z,41.80
2018-12-29T02:27:25.547Z,43.30
2018-12-29T02:29:54.926Z,44.20
2018-12-29T02:32:24.306Z,46.83
2018-12-29T02:34:53.720Z,44.18
2018-12-29T02:37:23.104Z,47.10
2018-12-29T02:39:52.496Z,46.00
2018-12-29T02:42:22.197Z,45.58
2018-12-29T02:44:51.581Z,42.38
2018-12-29T02:47:20.959Z,50.30
2018-12-29T02:49:50.947Z,44.47
2018-12-29T02:52:23.034Z,45.67
2018-12-29T02:54:52.480Z,45.23
2018-12-29T02:57:21.903Z,44.20
2018-12-29T02:59:51.335Z,41.70
2018-12-29T03:02:20.697Z,45.43
2018-12-29T03:04:50.096Z,43.20
2018-12-29T03:07:20.269Z,44.42
2018-12-29T03:09:50.151Z,47.67
2018-12-29T03:12:22.622Z,44.80
2018-12-29T03:14:52.282Z,45.50
2018-12-29T03:17:22.683Z,45.73
2018-12-29T03:19:52.627Z,45.50
2018-12-29T03:22:23.129Z,50.57
2018-12-29T03:24:52.797Z,46.33
2018-12-29T03:27:22.267Z,48.43
2018-12-29T03:29:51.717Z,52.43
2018-12-29T03:32:21.093Z,45.73
2018-12-29T03:34:50.744Z,46.60
2018-12-29T03:37:20.115Z,45.43
2018-12-29T03:39:49.516Z,45.17
2018-12-29T03:42:18.919Z,47.80
2018-12-29T03:44:48.331Z,47.17
2018-12-29T03:47:17.702Z,46.67
2018-12-29T03:49:47.122Z,43.30
2018-12-29T03:52:16.532Z,47.13
2018-12-29T03:54:45.912Z,48.70
2018-12-29T03:57:15.419Z,48.40
2018-12-29T03:59:44.828Z,47.63
2018-12-29T04:02:14.272Z,47.07
2018-12-29T04:04:43.646Z,44.08
2018-12-29T04:07:13.307Z,45.77
2018-12-29T04:09:42.710Z,45.43
2018-12-29T04:12:15.275Z,50.47
2018-12-29T04:14:45.336Z,43.93
2018-12-29T04:17:14.750Z,45.97
2018-12-29T04:19:44.397Z,45.77
2018-12-29T04:22:13.807Z,45.63
2018-12-29T04:24:45.884Z,45.97
2018-12-29T04:27:15.438Z,48.50
2018-12-29T04:29:46.469Z,46.10
2018-12-29T04:32:15.973Z,43.00
2018-12-29T04:34:45.437Z,42.33
2018-12-29T04:37:14.890Z,43.80
2018-12-29T04:39:44.246Z,43.77
2018-12-29T04:42:13.668Z,43.03
2018-12-29T04:44:48.740Z,45.20
2018-12-29T04:47:18.123Z,44.63
2018-12-29T04:49:47.572Z,42.77
2018-12-29T04:52:16.979Z,40.60
2018-12-29T04:54:46.637Z,40.53
2018-12-29T04:57:16.059Z,42.93
2018-12-29T04:59:45.518Z,43.42
2018-12-29T05:02:14.968Z,46.02
2018-12-29T05:04:46.333Z,43.83
2018-12-29T05:07:15.742Z,40.57
2018-12-29T05:09:45.234Z,41.33
2018-12-29T05:12:14.652Z,40.17
2018-12-29T05:14:44.138Z,40.07
2018-12-29T05:17:13.597Z,44.03
2018-12-29T05:19:43.081Z,41.00
2018-12-29T05:22:12.455Z,40.47
2018-12-29T05:24:41.887Z,44.40
2018-12-29T05:27:11.278Z,43.33
2018-12-29T05:29:40.696Z,44.08
2018-12-29T05:32:13.198Z,41.80
2018-12-29T05:34:42.635Z,39.23
2018-12-29T05:37:12.284Z,39.93
2018-12-29T05:39:41.852Z,44.20
2018-12-29T05:42:11.245Z,44.47
2018-12-29T05:44:40.631Z,39.95
2018-12-29T05:47:11.805Z,44.60
2018-12-29T05:49:41.235Z,46.43
2018-12-29T05:52:16.627Z,42.50
2018-12-29T05:54:48.017Z,40.67
2018-12-29T05:57:17.390Z,43.87
2018-12-29T05:59:46.770Z,42.30
2018-12-29T06:02:16.203Z,42.40
2018-12-29T06:07:39.005Z,41.15
2018-12-29T06:10:08.701Z,40.60
2018-12-29T06:12:38.098Z,44.03
2018-12-29T06:15:09.199Z,38.58
2018-12-29T06:17:38.658Z,45.10
2018-12-29T06:20:08.015Z,44.37
2018-12-29T06:22:37.414Z,38.87
2018-12-29T06:25:06.880Z,45.63
2018-12-29T06:27:36.257Z,39.70
2018-12-29T06:30:06.004Z,42.20
2018-12-29T06:32:35.403Z,44.53
2018-12-29T06:35:05.095Z,42.50
2018-12-29T06:37:34.601Z,40.70
2018-12-29T06:40:06.939Z,36.40
2018-12-29T06:42:36.383Z,42.27
2018-12-29T06:45:06.124Z,38.95
2018-12-29T06:47:35.613Z,42.80
2018-12-29T06:50:06.504Z,51.60
2018-12-29T06:52:36.055Z,43.85
2018-12-29T06:55:05.791Z,46.27
2018-12-29T06:57:35.583Z,39.87
2018-12-29T07:00:08.056Z,44.00
2018-12-29T07:02:40.532Z,41.93
2018-12-29T07:05:10.006Z,39.60
2018-12-29T07:07:39.582Z,42.50
2018-12-29T07:10:08.973Z,41.40
2018-12-29T07:12:38.445Z,40.93
2018-12-29T07:15:09.489Z,41.48
2018-12-29T07:17:40.430Z,43.30
2018-12-29T07:20:09.934Z,46.83
2018-12-29T07:22:41.436Z,42.13
2018-12-29T07:25:11.934Z,46.70
2018-12-29T07:27:43.564Z,43.05
2018-12-29T07:30:15.654Z,46.27
2018-12-29T07:32:45.133Z,41.23
2018-12-29T07:35:14.675Z,39.83
2018-12-29T07:37:44.223Z,41.47
2018-12-29T07:40:13.834Z,45.63
2018-12-29T07:42:43.367Z,47.20
2018-12-29T07:45:12.822Z,44.73
2018-12-29T07:47:48.488Z,43.67
2018-12-29T07:50:17.879Z,42.97
2018-12-29T07:52:48.806Z,43.60
2018-12-29T07:55:18.279Z,44.13
2018-12-29T07:57:47.783Z,41.77
2018-12-29T08:00:17.295Z,41.57
2018-12-29T08:02:46.759Z,45.53
2018-12-29T08:05:16.229Z,42.65
2018-12-29T08:07:45.766Z,45.97
2018-12-29T08:10:15.212Z,40.38
2018-12-29T08:12:44.704Z,41.30
2018-12-29T08:15:16.454Z,38.13
2018-12-29T08:17:47.458Z,41.10
2018-12-29T08:20:16.944Z,39.40
2018-12-29T08:22:46.383Z,41.37
2018-12-29T08:25:15.884Z,39.70
2018-12-29T08:27:45.385Z,39.93
2018-12-29T08:30:14.924Z,44.10
2018-12-29T08:32:44.638Z,39.17
2018-12-29T08:35:14.161Z,45.20
2018-12-29T08:37:46.350Z,36.57
2018-12-29T08:40:15.830Z,42.63
2018-12-29T08:42:45.351Z,40.90
2018-12-29T08:45:15.120Z,39.33
2018-12-29T08:47:44.532Z,40.30
2018-12-29T08:50:14.268Z,38.43
2018-12-29T08:52:49.508Z,34.43
2018-12-29T08:55:18.998Z,36.73
2018-12-29T08:57:48.548Z,38.33
2018-12-29T09:00:19.302Z,39.03
2018-12-29T09:02:48.806Z,37.97
2018-12-29T09:05:30.349Z,39.88
2018-12-29T09:08:00.383Z,39.17
2018-12-29T09:10:31.452Z,40.90
2018-12-29T09:13:04.896Z,37.13
2018-12-29T09:15:34.756Z,42.97
2018-12-29T09:18:04.129Z,40.53
2018-12-29T09:20:33.588Z,37.23
2018-12-29T09:23:03.633Z,40.67
2018-12-29T09:25:43.903Z,42.40
2018-12-29T09:28:23.114Z,44.93
2018-12-29T09:30:58.593Z,39.00
2018-12-29T09:33:28.060Z,42.10
2018-12-29T09:36:12.955Z,36.98
2018-12-29T09:38:41.661Z,43.00
2018-12-29T09:41:11.321Z,37.48
2018-12-29T09:43:40.728Z,39.73
2018-12-29T09:46:10.261Z,38.60
2018-12-29T09:48:39.729Z,41.03
2018-12-29T09:51:09.202Z,33.70
2018-12-29T09:53:39.056Z,41.60
2018-12-29T09:56:08.450Z,34.77
2018-12-29T09:58:38.981Z,39.00
2018-12-29T10:01:08.704Z,39.07
2018-12-29T10:03:38.189Z,36.63
2018-12-29T10:06:07.668Z,36.13
2018-12-29T10:08:37.170Z,35.87
2018-12-29T10:11:06.632Z,38.10
2018-12-29T10:13:37.675Z,38.03
2018-12-29T10:16:07.123Z,35.13
2018-12-29T10:18:36.635Z,38.17
2018-12-29T10:21:06.351Z,35.73
2018-12-29T10:23:48.842Z,36.47
2018-12-29T10:26:21.061Z,35.10
2018-12-29T10:28:50.577Z,35.33
2018-12-29T10:31:20.994Z,37.80
2018-12-29T10:33:50.438Z,37.90
2018-12-29T10:36:19.999Z,38.33
2018-12-29T10:38:49.503Z,36.20
2018-12-29T10:41:19.524Z,32.97
2018-12-29T10:43:49.295Z,35.13
2018-12-29T10:46:18.736Z,40.15
2018-12-29T10:48:52.959Z,36.03
2018-12-29T10:51:23.944Z,36.77
2018-12-29T10:53:53.436Z,35.03
2018-12-29T10:56:22.889Z,37.90
2018-12-29T10:58:52.403Z,32.63
2018-12-29T11:01:23.455Z,35.00
2018-12-29T11:03:54.917Z,32.80
2018-12-29T11:06:24.182Z,36.43
2018-12-29T11:08:55.406Z,34.63
2018-12-29T11:11:26.391Z,30.10
2018-12-29T11:13:55.794Z,32.27
2018-12-29T11:16:25.360Z,34.30
2018-12-29T11:18:54.884Z,32.57
2018-12-29T11:21:24.319Z,32.45
2018-12-29T11:23:56.187Z,31.55
2018-12-29T11:26:25.542Z,28.98
2018-12-29T11:28:55.073Z,28.93
2018-12-29T11:31:24.541Z,29.80
2018-12-29T11:33:53.983Z,28.70
2018-12-29T11:36:25.180Z,26.70
2018-12-29T11:38:54.619Z,26.80
2018-12-29T11:41:24.160Z,28.97
2018-12-29T11:43:53.706Z,25.60
2018-12-29T11:46:23.192Z,27.47
2018-12-29T11:48:52.663Z,30.17
2018-12-29T11:51:22.454Z,26.03
2018-12-29T11:53:51.900Z,26.17
2018-12-29T11:56:21.696Z,25.10
2018-12-29T11:58:51.546Z,28.80
2018-12-29T12:01:21.616Z,25.60
2018-12-29T12:03:51.613Z,25.57
2018-12-29T12:06:21.103Z,26.87
2018-12-29T12:08:50.560Z,26.07
2018-12-29T12:11:21.554Z,26.53
2018-12-29T12:13:51.055Z,22.23
2018-12-29T12:16:20.699Z,23.67
2018-12-29T12:18:50.177Z,25.50
2018-12-29T12:21:22.533Z,27.87
2018-12-29T12:23:53.729Z,21.77
2018-12-29T12:26:23.244Z,22.83
2018-12-29T12:28:54.323Z,23.30
2018-12-29T12:31:24.504Z,24.37
2018-12-29T12:33:54.211Z,21.97
2018-12-29T12:36:24.288Z,20.03
2018-12-29T12:38:56.226Z,22.77
2018-12-29T12:41:26.601Z,21.83
2018-12-29T12:44:01.928Z,19.63
2018-12-29T12:46:31.683Z,21.50
2018-12-29T12:49:01.663Z,19.73
2018-12-29T12:51:31.225Z,18.70
2018-12-29T12:54:00.770Z,20.30
2018-12-29T12:56:30.358Z,18.53
2018-12-29T12:58:59.888Z,21.33
2018-12-29T13:01:29.908Z,20.10
2018-12-29T13:03:59.572Z,19.10
2018-12-29T13:06:32.582Z,21.40
2018-12-29T13:09:02.309Z,23.37
2018-12-29T13:11:36.201Z,18.62
2018-12-29T13:14:05.673Z,23.23
2018-12-29T13:16:35.268Z,19.40
2018-12-29T13:19:05.077Z,19.70
2018-12-29T13:21:34.968Z,18.87
2018-12-29T13:24:08.513Z,22.37
2018-12-29T13:26:38.515Z,18.47
2018-12-29T13:29:07.992Z,20.57
2018-12-29T13:31:37.420Z,22.47
2018-12-29T13:34:06.969Z,23.23
2018-12-29T13:36:36.875Z,18.20
2018-12-29T13:39:07.918Z,19.05
2018-12-29T13:41:37.410Z,20.17
2018-12-29T13:44:07.635Z,19.20
2018-12-29T13:46:37.101Z,18.03
2018-12-29T13:49:06.632Z,18.17
2018-12-29T13:51:36.104Z,18.20
2018-12-29T13:54:05.647Z,17.53
2018-12-29T13:56:35.074Z,19.45
2018-12-29T13:59:04.573Z,17.07
2018-12-29T14:01:35.564Z,16.37
2018-12-29T14:04:05.029Z,15.90
2018-12-29T14:06:34.789Z,16.33
2018-12-29T14:09:05.084Z,17.23
2018-12-29T14:11:37.105Z,15.15
2018-12-29T14:14:06.590Z,18.77
2018-12-29T14:16:38.775Z,16.15
2018-12-29T14:19:08.192Z,16.50
2018-12-29T14:21:40.666Z,18.37
2018-12-29T14:24:10.164Z,19.43
2018-12-29T14:26:39.669Z,15.67
2018-12-29T14:29:09.294Z,15.00
2018-12-29T14:31:39.014Z,17.00
2018-12-29T14:34:10.075Z,15.17
2018-12-29T14:36:39.680Z,15.68
2018-12-29T14:39:11.557Z,19.73
2018-12-29T14:41:41.381Z,16.15
2018-12-29T14:44:10.886Z,16.57
2018-12-29T14:46:40.580Z,17.62
2018-12-29T14:49:11.317Z,11.60
2018-12-29T14:51:42.292Z,15.97
2018-12-29T14:54:11.762Z,14.03
2018-12-29T14:56:43.380Z,12.40
2018-12-29T14:59:21.342Z,13.43
2018-12-29T15:01:50.864Z,12.95
2018-12-29T15:04:20.331Z,13.20
2018-12-29T15:06:50.077Z,12.78
2018-12-29T15:09:19.559Z,12.20
2018-12-29T15:11:49.056Z,11.87
2018-12-29T15:14:18.464Z,12.30
2018-12-29T15:16:50.566Z,11.47
2018-12-29T15:19:20.183Z,12.63
2018-12-29T15:21:49.956Z,12.00
2018-12-29T15:24:38.667Z,12.83
2018-12-29T15:27:08.047Z,14.65
2018-12-29T15:29:37.407Z,11.73
2018-12-29T15:32:07.168Z,12.53
2018-12-29T15:34:37.175Z,13.22
2018-12-29T15:37:07.224Z,12.28
2018-12-29T15:39:37.208Z,12.63
2018-12-29T15:42:06.580Z,11.27
2018-12-29T15:44:35.945Z,11.93
2018-12-29T15:47:05.598Z,13.30
2018-12-29T15:49:34.965Z,15.50
2018-12-29T15:52:04.340Z,12.77
2018-12-29T15:54:34.091Z,14.20
2018-12-29T15:57:03.486Z,13.97
2018-12-29T15:59:33.029Z,11.50
2018-12-29T16:02:02.409Z,12.60
2018-12-29T16:04:32.676Z,14.87
2018-12-29T16:07:02.131Z,11.20
2018-12-29T16:09:32.736Z,11.00
2018-12-29T16:12:02.117Z,10.00
2018-12-29T16:14:35.365Z,13.53
2018-12-29T16:17:02.597Z,11.03
2018-12-29T16:19:31.995Z,10.17
2018-12-29T16:22:01.389Z,11.73
2018-12-29T16:24:31.119Z,13.17
2018-12-29T16:27:00.503Z,10.50
2018-12-29T16:29:29.951Z,10.33
2018-12-29T16:31:59.800Z,11.28
2018-12-29T16:34:29.833Z,15.25
2018-12-29T16:37:00.101Z,10.25
2018-12-29T16:39:29.878Z,12.73
2018-12-29T16:41:59.237Z,11.23
2018-12-29T16:44:28.612Z,12.17
2018-12-29T16:46:57.977Z,11.83
2018-12-29T16:49:27.646Z,11.33
2018-12-29T16:51:57.022Z,10.27
2018-12-29T16:54:26.397Z,11.43
2018-12-29T16:56:55.762Z,10.50
2018-12-29T16:59:25.549Z,9.10
2018-12-29T17:01:55.130Z,8.47
2018-12-29T17:04:24.500Z,8.67
2018-12-29T17:06:53.881Z,9.23
2018-12-29T17:09:23.429Z,9.93
2018-12-29T17:11:52.823Z,13.00
2018-12-29T17:14:22.255Z,10.35
2018-12-29T17:16:51.617Z,10.03
2018-12-29T17:19:21.003Z,8.80
2018-12-29T17:21:50.370Z,10.80
2018-12-29T17:24:19.759Z,9.53
2018-12-29T17:26:49.132Z,11.33
2018-12-29T17:29:18.514Z,9.33
2018-12-29T17:31:47.882Z,11.00
2018-12-29T17:34:17.543Z,8.07
2018-12-29T17:36:47.290Z,12.23
2018-12-29T17:39:16.665Z,10.93
2018-12-29T17:41:46.044Z,9.33
2018-12-29T17:44:15.413Z,10.47
2018-12-29T17:46:45.654Z,10.03
2018-12-29T17:49:22.484Z,9.53
2018-12-29T17:51:46.635Z,12.67
2018-12-29T17:54:16.013Z,12.93
2018-12-29T17:56:45.393Z,11.47
2018-12-29T17:59:14.844Z,14.20
2018-12-29T18:01:44.396Z,11.30
2018-12-29T18:04:13.805Z,13.03
2018-12-29T18:06:43.189Z,15.13
2018-12-29T18:09:12.562Z,13.58
2018-12-29T18:11:41.942Z,14.67
2018-12-29T18:14:11.308Z,15.77
2018-12-29T18:16:40.700Z,15.55
2018-12-29T18:19:10.340Z,15.90
2018-12-29T18:21:39.730Z,17.70
2018-12-29T18:24:09.109Z,20.23
2018-12-29T18:26:38.494Z,22.23
2018-12-29T18:29:08.149Z,18.23
2018-12-29T18:31:37.525Z,19.17
2018-12-29T18:34:06.911Z,21.23
2018-12-29T18:36:36.295Z,19.30
2018-12-29T18:39:07.776Z,20.73
2018-12-29T18:41:37.158Z,22.70
2018-12-29T18:44:06.698Z,20.50
2018-12-29T18:46:36.362Z,20.57
2018-12-29T18:49:05.748Z,21.60
2018-12-29T18:51:35.116Z,20.77
2018-12-29T18:54:04.500Z,23.10
2018-12-29T18:56:34.348Z,20.70
2018-12-29T18:59:03.755Z,24.75
2018-12-29T19:01:33.130Z,21.20
2018-12-29T19:04:02.529Z,25.73
2018-12-29T19:06:31.913Z,20.43
2018-12-29T19:09:01.307Z,21.97
2018-12-29T19:11:31.042Z,23.83
2018-12-29T19:14:00.943Z,26.33
2018-12-29T19:16:30.336Z,24.05
2018-12-29T19:19:00.048Z,24.77
2018-12-29T19:21:29.430Z,25.43
2018-12-29T19:23:59.270Z,29.67
2018-12-29T19:26:29.020Z,25.70
2018-12-29T19:28:58.682Z,24.53
2018-12-29T19:31:28.056Z,26.50
2018-12-29T19:33:57.459Z,29.53
2018-12-29T19:36:27.865Z,26.12
2018-12-29T19:38:57.424Z,28.00
2018-12-29T19:41:26.829Z,28.00
2018-12-29T19:43:56.592Z,30.00
2018-12-29T19:46:26.344Z,26.17
2018-12-29T19:48:55.732Z,26.90
2018-12-29T19:51:25.098Z,27.80
2018-12-29T19:53:54.549Z,27.13
2018-12-29T19:56:23.933Z,30.70
2018-12-29T19:58:53.326Z,57.17
2018-12-29T20:01:22.710Z,28.70
2018-12-29T20:03:52.469Z,27.77
2018-12-29T20:06:21.832Z,27.37
2018-12-29T20:08:51.226Z,29.30
2018-12-29T20:11:20.639Z,28.33
2018-12-29T20:13:50.029Z,23.90
2018-12-29T20:16:19.394Z,27.63
2018-12-29T20:18:49.087Z,29.65
2018-12-29T20:21:18.493Z,27.93
2018-12-29T20:23:47.856Z,27.97
2018-12-29T20:26:17.228Z,29.17
2018-12-29T20:28:46.608Z,27.80
2018-12-29T20:31:16.002Z,30.53
2018-12-29T20:33:45.366Z,26.73
2018-12-29T20:36:14.738Z,28.17
2018-12-29T20:38:44.110Z,27.33
2018-12-29T20:41:13.510Z,28.43
2018-12-29T20:43:43.262Z,31.80
2018-12-29T20:46:12.641Z,28.60
2018-12-29T20:48:42.014Z,32.47
2018-12-29T20:51:11.409Z,31.05
2018-12-29T20:53:40.781Z,33.97
2018-12-29T20:56:10.485Z,33.10
2018-12-29T20:58:39.865Z,29.67
2018-12-29T21:01:09.251Z,32.98
2018-12-29T21:03:38.628Z,30.10
2018-12-29T21:06:08.021Z,31.90
2018-12-29T21:08:37.674Z,31.27
2018-12-29T21:11:07.082Z,32.83
2018-12-29T21:13:36.455Z,29.75
2018-12-29T21:16:05.843Z,29.82
2018-12-29T21:18:35.238Z,34.87
2018-12-29T21:21:05.596Z,31.77
2018-12-29T21:23:35.214Z,34.00
2018-12-29T21:26:04.608Z,36.53
2018-12-29T21:28:33.998Z,28.33
2018-12-29T21:31:03.690Z,27.70
2018-12-29T21:33:33.063Z,32.23
2018-12-29T21:36:02.452Z,34.30
2018-12-29T21:38:31.837Z,30.70
2018-12-29T21:41:01.232Z,29.13
2018-12-29T21:43:30.604Z,31.67
2018-12-29T21:45:59.990Z,26.47
2018-12-29T21:48:29.390Z,25.97
2018-12-29T21:50:58.853Z,31.50
2018-12-29T21:53:28.234Z,30.57
2018-12-29T21:55:57.719Z,27.00
2018-12-29T21:58:27.086Z,30.23
2018-12-29T22:00:56.473Z,29.23
2018-12-29T22:03:25.855Z,27.35
2018-12-29T22:05:55.472Z,26.53
2018-12-29T22:08:25.079Z,31.50
2018-12-29T22:10:55.135Z,25.90
2018-12-29T22:13:25.173Z,24.98
2018-12-29T22:16:13.912Z,34.07
2018-12-29T22:18:43.260Z,25.33
2018-12-29T22:21:12.648Z,23.10
2018-12-29T22:23:42.032Z,29.57
2018-12-29T22:26:11.428Z,22.50
2018-12-29T22:28:40.826Z,21.70
2018-12-29T22:31:10.541Z,18.27
2018-12-29T22:33:39.927Z,26.03
2018-12-29T22:36:09.589Z,23.18
2018-12-29T22:38:39.640Z,24.75
2018-12-29T22:41:09.008Z,20.45
2018-12-29T22:43:38.411Z,25.37
2018-12-29T22:46:07.775Z,21.73
2018-12-29T22:48:37.174Z,24.63
2018-12-29T22:51:06.539Z,25.08
2018-12-29T22:53:36.040Z,22.70
2018-12-29T22:56:05.433Z,21.40
2018-12-29T22:58:34.921Z,20.63
2018-12-29T23:01:04.991Z,27.60
2018-12-29T23:03:35.003Z,18.67
2018-12-29T23:06:05.373Z,26.53
2018-12-29T23:08:34.941Z,25.95
2018-12-29T23:11:04.712Z,21.20
2018-12-29T23:13:34.125Z,20.53
2018-12-29T23:16:03.602Z,23.50
2018-12-29T23:18:33.102Z,21.65
2018-12-29T23:21:02.498Z,22.60
2018-12-29T23:23:31.910Z,25.13
2018-12-29T23:26:01.634Z,19.57
2018-12-29T23:28:31.086Z,22.77
2018-12-29T23:31:00.959Z,23.87
2018-12-29T23:33:30.432Z,19.30
2018-12-29T23:35:59.835Z,20.37
2018-12-29T23:38:29.316Z,21.30
2018-12-29T23:40:58.723Z,17.87
2018-12-29T23:43:29.727Z,18.43
2018-12-29T23:45:59.111Z,17.17
2018-12-29T23:48:28.502Z,15.83
2018-12-29T23:51:05.114Z,11.60
2018-12-29T23:53:29.282Z,15.23
2018-12-29T23:55:59.232Z,17.33
2018-12-29T23:58:28.679Z,18.20
